sensor_id;sensor_type;location;lat;lon;timestamp;pressure;altitude;pressure_sealevel;temperature;humidity
41078;BME280;26823;42.662;23.352;2023-09-30T00:00:37;95248.59;;;16.21;70.74
41078;BME280;26823;42.662;23.352;2023-09-30T00:03:03;95242.03;;;16.22;70.68
41078;BME280;26823;42.662;23.352;2023-09-30T00:05:28;95235.47;;;16.23;70.98
41078;BME280;26823;42.662;23.352;2023-09-30T00:07:54;95235.28;;;16.19;70.85
41078;BME280;26823;42.662;23.352;2023-09-30T00:10:19;95241.03;;;16.18;71.00
41078;BME280;26823;42.662;23.352;2023-09-30T00:12:44;95234.16;;;16.20;71.21
41078;BME280;26823;42.662;23.352;2023-09-30T00:15:10;95235.66;;;16.12;70.97
41078;BME280;26823;42.662;23.352;2023-09-30T00:17:36;95236.78;;;16.11;71.29
41078;BME280;26823;42.662;23.352;2023-09-30T00:20:01;95238.00;;;16.19;71.21
41078;BME280;26823;42.662;23.352;2023-09-30T00:22:29;95235.06;;;16.16;71.00
41078;BME280;26823;42.662;23.352;2023-09-30T00:24:54;95233.22;;;16.11;70.99
41078;BME280;26823;42.662;23.352;2023-09-30T00:27:20;95230.41;;;16.16;71.30
41078;BME280;26823;42.662;23.352;2023-09-30T00:29:45;95219.50;;;16.16;71.28
41078;BME280;26823;42.662;23.352;2023-09-30T00:32:10;95228.09;;;16.23;71.40
41078;BME280;26823;42.662;23.352;2023-09-30T00:34:36;95235.66;;;16.26;70.58
41078;BME280;26823;42.662;23.352;2023-09-30T00:37:02;95230.81;;;16.23;70.20
41078;BME280;26823;42.662;23.352;2023-09-30T00:39:27;95217.97;;;16.24;69.85
41078;BME280;26823;42.662;23.352;2023-09-30T00:41:59;95229.59;;;16.29;70.17
41078;BME280;26823;42.662;23.352;2023-09-30T00:44:27;95230.41;;;16.30;70.71
41078;BME280;26823;42.662;23.352;2023-09-30T00:46:54;95225.13;;;16.34;70.49
41078;BME280;26823;42.662;23.352;2023-09-30T00:49:21;95232.41;;;16.38;70.67
41078;BME280;26823;42.662;23.352;2023-09-30T00:51:48;95233.72;;;16.41;70.72
41078;BME280;26823;42.662;23.352;2023-09-30T00:54:14;95210.19;;;16.31;70.78
41078;BME280;26823;42.662;23.352;2023-09-30T00:56:44;95225.97;;;16.34;70.54
41078;BME280;26823;42.662;23.352;2023-09-30T00:59:16;95234.16;;;16.34;70.88
41078;BME280;26823;42.662;23.352;2023-09-30T01:01:43;95226.56;;;16.31;71.02
41078;BME280;26823;42.662;23.352;2023-09-30T01:04:10;95225.25;;;16.28;71.04
41078;BME280;26823;42.662;23.352;2023-09-30T01:06:36;95221.72;;;16.28;70.80
41078;BME280;26823;42.662;23.352;2023-09-30T01:09:01;95224.13;;;16.29;71.25
41078;BME280;26823;42.662;23.352;2023-09-30T01:11:34;95214.13;;;16.25;70.98
41078;BME280;26823;42.662;23.352;2023-09-30T01:13:59;95220.09;;;16.27;71.28
41078;BME280;26823;42.662;23.352;2023-09-30T01:16:25;95203.84;;;16.22;71.52
41078;BME280;26823;42.662;23.352;2023-09-30T01:18:50;95216.25;;;16.28;71.35
41078;BME280;26823;42.662;23.352;2023-09-30T01:21:17;95221.31;;;16.35;71.89
41078;BME280;26823;42.662;23.352;2023-09-30T01:23:43;95215.84;;;16.35;71.79
41078;BME280;26823;42.662;23.352;2023-09-30T01:26:12;95223.72;;;16.36;71.66
41078;BME280;26823;42.662;23.352;2023-09-30T01:28:38;95217.66;;;16.39;71.76
41078;BME280;26823;42.662;23.352;2023-09-30T01:31:04;95220.41;;;16.39;71.81
41078;BME280;26823;42.662;23.352;2023-09-30T01:33:30;95226.84;;;16.43;72.14
41078;BME280;26823;42.662;23.352;2023-09-30T01:35:56;95224.03;;;16.35;72.21
41078;BME280;26823;42.662;23.352;2023-09-30T01:38:22;95223.72;;;16.36;71.36
41078;BME280;26823;42.662;23.352;2023-09-30T01:40:47;95215.31;;;16.33;70.96
41078;BME280;26823;42.662;23.352;2023-09-30T01:43:13;95220.69;;;16.38;70.74
41078;BME280;26823;42.662;23.352;2023-09-30T01:45:40;95216.16;;;16.33;70.93
41078;BME280;26823;42.662;23.352;2023-09-30T01:48:06;95219.69;;;16.34;70.19
41078;BME280;26823;42.662;23.352;2023-09-30T01:50:31;95215.84;;;16.35;68.46
41078;BME280;26823;42.662;23.352;2023-09-30T01:52:57;95213.44;;;16.33;68.17
41078;BME280;26823;42.662;23.352;2023-09-30T01:55:22;95216.16;;;16.33;68.89
41078;BME280;26823;42.662;23.352;2023-09-30T01:57:48;95209.75;;;16.38;69.77
41078;BME280;26823;42.662;23.352;2023-09-30T02:00:13;95203.63;;;16.32;69.81
41078;BME280;26823;42.662;23.352;2023-09-30T02:02:38;95210.59;;;16.38;69.95
41078;BME280;26823;42.662;23.352;2023-09-30T02:05:04;95203.94;;;16.30;69.50
41078;BME280;26823;42.662;23.352;2023-09-30T02:07:33;95206.66;;;16.30;69.56
41078;BME280;26823;42.662;23.352;2023-09-30T02:09:59;95196.97;;;16.24;69.86
41078;BME280;26823;42.662;23.352;2023-09-30T02:12:26;95212.44;;;16.29;70.41
41078;BME280;26823;42.662;23.352;2023-09-30T02:14:52;95205.84;;;16.30;71.06
41078;BME280;26823;42.662;23.352;2023-09-30T02:17:17;95199.47;;;16.21;71.06
41078;BME280;26823;42.662;23.352;2023-09-30T02:19:42;95208.66;;;16.25;70.81
41078;BME280;26823;42.662;23.352;2023-09-30T02:22:08;95214.94;;;16.25;71.16
41078;BME280;26823;42.662;23.352;2023-09-30T02:24:34;95203.00;;;16.21;70.52
41078;BME280;26823;42.662;23.352;2023-09-30T02:26:59;95206.88;;;16.20;70.45
41078;BME280;26823;42.662;23.352;2023-09-30T02:29:25;95210.09;;;16.22;69.73
41078;BME280;26823;42.662;23.352;2023-09-30T02:31:51;95211.91;;;16.27;69.45
41078;BME280;26823;42.662;23.352;2023-09-30T02:34:16;95198.84;;;16.24;69.20
41078;BME280;26823;42.662;23.352;2023-09-30T02:36:41;95206.06;;;16.20;69.39
41078;BME280;26823;42.662;23.352;2023-09-30T02:39:07;95211.41;;;16.11;69.38
41078;BME280;26823;42.662;23.352;2023-09-30T02:41:34;95211.41;;;16.11;69.42
41078;BME280;26823;42.662;23.352;2023-09-30T02:44:00;95212.72;;;16.13;69.78
41078;BME280;26823;42.662;23.352;2023-09-30T02:46:25;95204.16;;;16.06;69.84
41078;BME280;26823;42.662;23.352;2023-09-30T02:48:53;95201.31;;;15.97;69.36
41078;BME280;26823;42.662;23.352;2023-09-30T02:51:18;95214.13;;;15.97;69.58
41078;BME280;26823;42.662;23.352;2023-09-30T02:53:44;95213.53;;;15.86;69.86
41078;BME280;26823;42.662;23.352;2023-09-30T02:56:09;95205.31;;;15.72;70.49
41078;BME280;26823;42.662;23.352;2023-09-30T02:58:35;95203.50;;;15.68;70.83
41078;BME280;26823;42.662;23.352;2023-09-30T03:01:01;95208.84;;;15.59;71.18
41078;BME280;26823;42.662;23.352;2023-09-30T03:03:26;95213.78;;;15.57;71.83
41078;BME280;26823;42.662;23.352;2023-09-30T03:05:52;95197.41;;;15.43;71.70
41078;BME280;26823;42.662;23.352;2023-09-30T03:08:19;95209.91;;;15.44;72.22
41078;BME280;26823;42.662;23.352;2023-09-30T03:10:45;95207.50;;;15.42;72.71
41078;BME280;26823;42.662;23.352;2023-09-30T03:13:11;95205.78;;;15.46;72.52
41078;BME280;26823;42.662;23.352;2023-09-30T03:15:37;95201.53;;;15.40;73.03
41078;BME280;26823;42.662;23.352;2023-09-30T03:18:04;95212.06;;;15.47;73.38
41078;BME280;26823;42.662;23.352;2023-09-30T03:20:30;95211.03;;;15.43;73.32
41078;BME280;26823;42.662;23.352;2023-09-30T03:22:56;95215.97;;;15.41;73.25
41078;BME280;26823;42.662;23.352;2023-09-30T03:25:21;95213.03;;;15.37;73.84
41078;BME280;26823;42.662;23.352;2023-09-30T03:27:48;95217.06;;;15.40;73.97
41078;BME280;26823;42.662;23.352;2023-09-30T03:30:15;95208.09;;;15.39;73.72
41078;BME280;26823;42.662;23.352;2023-09-30T03:32:41;95198.97;;;15.30;73.51
41078;BME280;26823;42.662;23.352;2023-09-30T03:35:08;95212.50;;;15.35;73.10
41078;BME280;26823;42.662;23.352;2023-09-30T03:37:36;95210.50;;;15.27;73.01
41078;BME280;26823;42.662;23.352;2023-09-30T03:40:02;95206.53;;;15.19;72.64
41078;BME280;26823;42.662;23.352;2023-09-30T03:42:36;95211.97;;;15.19;72.65
41078;BME280;26823;42.662;23.352;2023-09-30T03:45:03;95200.06;;;15.15;72.52
41078;BME280;26823;42.662;23.352;2023-09-30T03:47:31;95200.06;;;15.15;72.30
41078;BME280;26823;42.662;23.352;2023-09-30T03:49:56;95207.94;;;15.16;71.63
41078;BME280;26823;42.662;23.352;2023-09-30T03:52:24;95209.84;;;15.16;71.23
41078;BME280;26823;42.662;23.352;2023-09-30T03:54:51;95208.53;;;15.13;71.29
41078;BME280;26823;42.662;23.352;2023-09-30T03:57:16;95211.84;;;15.10;71.08
41078;BME280;26823;42.662;23.352;2023-09-30T03:59:42;95212.72;;;15.06;71.59
41078;BME280;26823;42.662;23.352;2023-09-30T04:02:11;95209.22;;;15.05;71.64
41078;BME280;26823;42.662;23.352;2023-09-30T04:04:36;95197.31;;;15.01;71.39
41078;BME280;26823;42.662;23.352;2023-09-30T04:07:02;95209.78;;;15.02;71.69
41078;BME280;26823;42.662;23.352;2023-09-30T04:09:31;95218.41;;;15.09;71.70
41078;BME280;26823;42.662;23.352;2023-09-30T04:11:57;95221.22;;;15.04;71.89
41078;BME280;26823;42.662;23.352;2023-09-30T04:14:22;95226.66;;;15.04;71.99
41078;BME280;26823;42.662;23.352;2023-09-30T04:16:48;95218.25;;;15.00;71.55
41078;BME280;26823;42.662;23.352;2023-09-30T04:19:13;95205.41;;;14.87;71.91
41078;BME280;26823;42.662;23.352;2023-09-30T04:21:39;95211.44;;;14.84;72.18
41078;BME280;26823;42.662;23.352;2023-09-30T04:24:04;95229.25;;;14.95;72.13
41078;BME280;26823;42.662;23.352;2023-09-30T04:26:30;95185.38;;;14.40;69.78
41078;BME280;26823;42.662;23.352;2023-09-30T04:28:55;95218.03;;;14.40;70.30
41078;BME280;26823;42.662;23.352;2023-09-30T04:31:22;95230.41;;;14.51;70.43
41078;BME280;26823;42.662;23.352;2023-09-30T04:33:49;95214.78;;;14.38;70.65
41078;BME280;26823;42.662;23.352;2023-09-30T04:36:16;95229.88;;;14.49;70.67
41078;BME280;26823;42.662;23.352;2023-09-30T04:38:41;95228.34;;;14.43;70.32
41078;BME280;26823;42.662;23.352;2023-09-30T04:41:08;95224.88;;;14.37;71.21
41078;BME280;26823;42.662;23.352;2023-09-30T04:43:34;95228.03;;;14.44;70.79
41078;BME280;26823;42.662;23.352;2023-09-30T04:46:00;95235.31;;;14.49;70.79
41078;BME280;26823;42.662;23.352;2023-09-30T04:48:26;95242.91;;;14.52;70.21
41078;BME280;26823;42.662;23.352;2023-09-30T04:50:52;95232.06;;;14.28;69.37
41078;BME280;26823;42.662;23.352;2023-09-30T04:53:19;95238.78;;;14.35;69.60
41078;BME280;26823;42.662;23.352;2023-09-30T04:55:44;95245.09;;;14.31;68.60
41078;BME280;26823;42.662;23.352;2023-09-30T04:58:10;95238.91;;;14.25;69.07
41078;BME280;26823;42.662;23.352;2023-09-30T05:00:36;95226.75;;;14.17;69.36
41078;BME280;26823;42.662;23.352;2023-09-30T05:03:02;95245.59;;;14.33;69.04
41078;BME280;26823;42.662;23.352;2023-09-30T05:05:27;95243.97;;;14.32;69.60
41078;BME280;26823;42.662;23.352;2023-09-30T05:07:54;95232.50;;;14.35;69.88
41078;BME280;26823;42.662;23.352;2023-09-30T05:10:19;95235.03;;;14.31;70.15
41078;BME280;26823;42.662;23.352;2023-09-30T05:12:45;95251.47;;;14.40;70.12
41078;BME280;26823;42.662;23.352;2023-09-30T05:15:11;95254.72;;;14.42;70.74
41078;BME280;26823;42.662;23.352;2023-09-30T05:17:38;95231.19;;;14.32;70.43
41078;BME280;26823;42.662;23.352;2023-09-30T05:20:03;95252.84;;;14.43;71.20
41078;BME280;26823;42.662;23.352;2023-09-30T05:22:33;95250.16;;;14.38;71.09
41078;BME280;26823;42.662;23.352;2023-09-30T05:24:58;95247.16;;;14.39;71.40
41078;BME280;26823;42.662;23.352;2023-09-30T05:27:24;95250.63;;;14.45;71.25
41078;BME280;26823;42.662;23.352;2023-09-30T05:29:49;95243.13;;;14.37;71.82
41078;BME280;26823;42.662;23.352;2023-09-30T05:32:14;95240.09;;;14.38;72.45
41078;BME280;26823;42.662;23.352;2023-09-30T05:34:40;95247.31;;;14.48;72.75
41078;BME280;26823;42.662;23.352;2023-09-30T05:37:05;95248.66;;;14.50;72.62
41078;BME280;26823;42.662;23.352;2023-09-30T05:39:31;95256.97;;;14.59;72.83
41078;BME280;26823;42.662;23.352;2023-09-30T05:41:57;95256.63;;;14.66;72.98
41078;BME280;26823;42.662;23.352;2023-09-30T05:44:22;95267.38;;;14.76;72.58
41078;BME280;26823;42.662;23.352;2023-09-30T05:46:48;95271.56;;;14.88;71.37
41078;BME280;26823;42.662;23.352;2023-09-30T05:49:13;95269.72;;;15.02;71.59
41078;BME280;26823;42.662;23.352;2023-09-30T05:51:40;95266.78;;;15.18;71.65
41078;BME280;26823;42.662;23.352;2023-09-30T05:54:06;95256.41;;;15.33;70.42
41078;BME280;26823;42.662;23.352;2023-09-30T05:56:33;95273.09;;;15.79;69.54
41078;BME280;26823;42.662;23.352;2023-09-30T05:58:59;95284.88;;;16.07;68.39
41078;BME280;26823;42.662;23.352;2023-09-30T06:01:24;95271.94;;;16.13;67.74
41078;BME280;26823;42.662;23.352;2023-09-30T06:03:49;95280.03;;;16.32;67.00
41078;BME280;26823;42.662;23.352;2023-09-30T06:06:15;95269.81;;;16.24;67.06
41078;BME280;26823;42.662;23.352;2023-09-30T06:08:44;95281.44;;;16.29;67.33
41078;BME280;26823;42.662;23.352;2023-09-30T06:11:19;95282.56;;;16.28;67.23
41078;BME280;26823;42.662;23.352;2023-09-30T06:13:52;95253.06;;;16.17;66.45
41078;BME280;26823;42.662;23.352;2023-09-30T06:16:20;95280.94;;;16.41;66.45
41078;BME280;26823;42.662;23.352;2023-09-30T06:18:46;95286.91;;;16.57;66.43
41078;BME280;26823;42.662;23.352;2023-09-30T06:21:13;95296.16;;;16.84;65.86
41078;BME280;26823;42.662;23.352;2023-09-30T06:23:40;95293.13;;;17.22;63.94
41078;BME280;26823;42.662;23.352;2023-09-30T06:26:05;95281.47;;;17.31;62.55
41078;BME280;26823;42.662;23.352;2023-09-30T06:28:38;95300.75;;;17.48;62.78
41078;BME280;26823;42.662;23.352;2023-09-30T06:31:17;95289.81;;;17.48;62.48
41078;BME280;26823;42.662;23.352;2023-09-30T06:33:42;95297.69;;;17.50;62.07
41078;BME280;26823;42.662;23.352;2023-09-30T06:36:12;95264.88;;;17.27;61.54
41078;BME280;26823;42.662;23.352;2023-09-30T06:38:43;95293.34;;;17.49;61.52
41078;BME280;26823;42.662;23.352;2023-09-30T06:41:09;95267.56;;;17.41;60.80
41078;BME280;26823;42.662;23.352;2023-09-30T06:43:34;95296.25;;;17.75;62.06
41078;BME280;26823;42.662;23.352;2023-09-30T06:46:07;95296.38;;;17.92;60.87
41078;BME280;26823;42.662;23.352;2023-09-30T06:48:37;95290.66;;;18.03;60.27
41078;BME280;26823;42.662;23.352;2023-09-30T06:51:02;95294.25;;;18.21;59.66
41078;BME280;26823;42.662;23.352;2023-09-30T06:53:28;95296.50;;;18.19;59.73
41078;BME280;26823;42.662;23.352;2023-09-30T06:55:54;95291.84;;;18.19;59.36
41078;BME280;26823;42.662;23.352;2023-09-30T06:58:19;95301.56;;;18.34;58.91
41078;BME280;26823;42.662;23.352;2023-09-30T07:00:51;95303.38;;;18.48;58.71
41078;BME280;26823;42.662;23.352;2023-09-30T07:03:17;95299.44;;;18.71;57.78
41078;BME280;26823;42.662;23.352;2023-09-30T07:05:44;95300.09;;;18.86;57.06
41078;BME280;26823;42.662;23.352;2023-09-30T07:08:10;95317.41;;;19.04;55.95
41078;BME280;26823;42.662;23.352;2023-09-30T07:10:35;95313.22;;;19.06;53.95
41078;BME280;26823;42.662;23.352;2023-09-30T07:13:02;95308.06;;;19.14;52.62
41078;BME280;26823;42.662;23.352;2023-09-30T07:15:28;95314.84;;;19.25;52.83
41078;BME280;26823;42.662;23.352;2023-09-30T07:17:54;95310.19;;;19.26;52.81
41078;BME280;26823;42.662;23.352;2023-09-30T07:20:19;95309.03;;;19.62;51.02
41078;BME280;26823;42.662;23.352;2023-09-30T07:22:46;95308.06;;;19.93;48.11
41078;BME280;26823;42.662;23.352;2023-09-30T07:25:12;95310.72;;;20.10;47.37
41078;BME280;26823;42.662;23.352;2023-09-30T07:27:39;95317.03;;;20.19;46.86
41078;BME280;26823;42.662;23.352;2023-09-30T07:30:05;95316.00;;;20.24;46.99
41078;BME280;26823;42.662;23.352;2023-09-30T07:32:32;95311.50;;;20.28;46.60
41078;BME280;26823;42.662;23.352;2023-09-30T07:34:57;95317.28;;;20.35;45.41
41078;BME280;26823;42.662;23.352;2023-09-30T07:37:22;95307.88;;;20.45;45.83
41078;BME280;26823;42.662;23.352;2023-09-30T07:39:48;95317.72;;;20.46;46.71
41078;BME280;26823;42.662;23.352;2023-09-30T07:42:13;95322.06;;;20.56;46.50
41078;BME280;26823;42.662;23.352;2023-09-30T07:44:39;95312.22;;;20.46;46.78
41078;BME280;26823;42.662;23.352;2023-09-30T07:47:04;95306.03;;;20.58;46.90
41078;BME280;26823;42.662;23.352;2023-09-30T07:49:32;95307.44;;;20.64;45.81
41078;BME280;26823;42.662;23.352;2023-09-30T07:51:57;95321.81;;;20.79;45.62
41078;BME280;26823;42.662;23.352;2023-09-30T07:54:23;95307.44;;;20.73;45.87
41078;BME280;26823;42.662;23.352;2023-09-30T07:56:49;95324.91;;;20.98;45.46
41078;BME280;26823;42.662;23.352;2023-09-30T07:59:14;95310.31;;;21.07;44.07
41078;BME280;26823;42.662;23.352;2023-09-30T08:01:41;95315.63;;;21.12;42.04
41078;BME280;26823;42.662;23.352;2023-09-30T08:04:06;95306.88;;;21.10;42.47
41078;BME280;26823;42.662;23.352;2023-09-30T08:06:31;95315.50;;;21.29;42.85
41078;BME280;26823;42.662;23.352;2023-09-30T08:08:57;95312.41;;;21.31;42.03
41078;BME280;26823;42.662;23.352;2023-09-30T08:11:22;95314.81;;;21.32;42.85
41078;BME280;26823;42.662;23.352;2023-09-30T08:13:50;95316.16;;;21.47;40.98
41078;BME280;26823;42.662;23.352;2023-09-30T08:16:15;95317.56;;;21.54;41.01
41078;BME280;26823;42.662;23.352;2023-09-30T08:18:41;95322.69;;;21.64;40.70
41078;BME280;26823;42.662;23.352;2023-09-30T08:21:09;95309.50;;;21.70;40.31
41078;BME280;26823;42.662;23.352;2023-09-30T08:23:35;95298.97;;;21.72;39.96
41078;BME280;26823;42.662;23.352;2023-09-30T08:26:01;95284.81;;;21.61;39.03
41078;BME280;26823;42.662;23.352;2023-09-30T08:28:26;95309.78;;;21.77;38.72
41078;BME280;26823;42.662;23.352;2023-09-30T08:30:52;95311.59;;;21.73;39.13
41078;BME280;26823;42.662;23.352;2023-09-30T08:33:22;95303.25;;;21.81;39.34
41078;BME280;26823;42.662;23.352;2023-09-30T08:35:47;95314.16;;;21.78;39.92
41078;BME280;26823;42.662;23.352;2023-09-30T08:38:13;95298.56;;;21.82;39.54
41078;BME280;26823;42.662;23.352;2023-09-30T08:40:38;95314.50;;;21.76;38.99
41078;BME280;26823;42.662;23.352;2023-09-30T08:43:04;95315.13;;;21.94;39.86
41078;BME280;26823;42.662;23.352;2023-09-30T08:45:33;95258.34;;;21.69;40.01
41078;BME280;26823;42.662;23.352;2023-09-30T08:47:59;95304.94;;;22.07;39.98
41078;BME280;26823;42.662;23.352;2023-09-30T08:50:31;95303.72;;;22.17;38.71
41078;BME280;26823;42.662;23.352;2023-09-30T08:52:56;95312.66;;;22.26;39.39
41078;BME280;26823;42.662;23.352;2023-09-30T08:55:23;95313.63;;;22.43;38.79
41078;BME280;26823;42.662;23.352;2023-09-30T08:57:49;95301.50;;;22.56;38.38
41078;BME280;26823;42.662;23.352;2023-09-30T09:00:15;95301.50;;;22.56;38.00
41078;BME280;26823;42.662;23.352;2023-09-30T09:02:42;95302.63;;;22.68;37.51
41078;BME280;26823;42.662;23.352;2023-09-30T09:05:08;95295.88;;;22.65;37.43
41078;BME280;26823;42.662;23.352;2023-09-30T09:07:35;95291.16;;;22.66;37.67
41078;BME280;26823;42.662;23.352;2023-09-30T09:10:10;95294.69;;;22.78;37.52
41078;BME280;26823;42.662;23.352;2023-09-30T09:12:38;95288.63;;;22.85;35.90
41078;BME280;26823;42.662;23.352;2023-09-30T09:15:08;95282.63;;;22.95;35.80
41078;BME280;26823;42.662;23.352;2023-09-30T09:17:45;95289.38;;;23.10;33.61
41078;BME280;26823;42.662;23.352;2023-09-30T09:20:11;95268.97;;;22.87;31.83
41078;BME280;26823;42.662;23.352;2023-09-30T09:22:44;95278.63;;;22.80;31.65
41078;BME280;26823;42.662;23.352;2023-09-30T09:25:18;95285.88;;;22.85;32.23
41078;BME280;26823;42.662;23.352;2023-09-30T09:27:44;95285.88;;;22.85;32.49
41078;BME280;26823;42.662;23.352;2023-09-30T09:30:15;95285.88;;;22.73;32.57
41078;BME280;26823;42.662;23.352;2023-09-30T09:33:00;95280.59;;;22.68;33.18
41078;BME280;26823;42.662;23.352;2023-09-30T09:35:27;95286.44;;;22.78;35.89
41078;BME280;26823;42.662;23.352;2023-09-30T09:40:31;95282.63;;;22.95;33.47
41078;BME280;26823;42.662;23.352;2023-09-30T09:42:58;95268.13;;;23.11;32.87
41078;BME280;26823;42.662;23.352;2023-09-30T09:45:26;95275.16;;;23.21;32.16
41078;BME280;26823;42.662;23.352;2023-09-30T09:47:53;95272.69;;;23.32;35.46
41078;BME280;26823;42.662;23.352;2023-09-30T09:50:20;95261.16;;;23.42;34.37
41078;BME280;26823;42.662;23.352;2023-09-30T09:52:48;95266.84;;;23.61;34.45
41078;BME280;26823;42.662;23.352;2023-09-30T09:55:17;95270.78;;;23.48;31.89
41078;BME280;26823;42.662;23.352;2023-09-30T09:57:43;95265.56;;;23.31;31.15
41078;BME280;26823;42.662;23.352;2023-09-30T10:00:20;95268.31;;;23.31;31.40
41078;BME280;26823;42.662;23.352;2023-09-30T10:02:47;95262.69;;;23.27;31.83
41078;BME280;26823;42.662;23.352;2023-09-30T10:05:14;95243.34;;;23.39;32.57
41078;BME280;26823;42.662;23.352;2023-09-30T10:08:00;95247.78;;;23.56;32.50
41078;BME280;26823;42.662;23.352;2023-09-30T10:10:27;95251.72;;;23.71;31.49
41078;BME280;26823;42.662;23.352;2023-09-30T10:12:53;95251.91;;;23.78;31.83
41078;BME280;26823;42.662;23.352;2023-09-30T10:18:06;95238.00;;;23.75;30.13
41078;BME280;26823;42.662;23.352;2023-09-30T10:20:34;95237.09;;;23.71;31.29
41078;BME280;26823;42.662;23.352;2023-09-30T10:25:49;95236.31;;;23.70;30.83
41078;BME280;26823;42.662;23.352;2023-09-30T10:36:32;95229.53;;;24.44;29.55
41078;BME280;26823;42.662;23.352;2023-09-30T10:38:59;95223.91;;;24.24;28.66
41078;BME280;26823;42.662;23.352;2023-09-30T10:46:48;95213.22;;;24.07;30.53
41078;BME280;26823;42.662;23.352;2023-09-30T10:49:35;95212.44;;;24.22;30.08
41078;BME280;26823;42.662;23.352;2023-09-30T10:52:04;95208.50;;;24.23;27.91
41078;BME280;26823;42.662;23.352;2023-09-30T10:54:31;95217.13;;;24.38;29.18
41078;BME280;26823;42.662;23.352;2023-09-30T10:56:58;95217.81;;;24.51;28.61
41078;BME280;26823;42.662;23.352;2023-09-30T10:59:28;95205.91;;;24.31;27.65
41078;BME280;26823;42.662;23.352;2023-09-30T11:01:56;95206.53;;;24.08;27.16
41078;BME280;26823;42.662;23.352;2023-09-30T11:04:21;95208.31;;;24.00;27.71
41078;BME280;26823;42.662;23.352;2023-09-30T11:06:47;95208.94;;;24.25;27.81
41078;BME280;26823;42.662;23.352;2023-09-30T11:09:17;95198.78;;;23.98;27.93
41078;BME280;26823;42.662;23.352;2023-09-30T11:11:43;95204.75;;;24.00;27.70
41078;BME280;26823;42.662;23.352;2023-09-30T11:16:52;95209.13;;;24.17;27.78
41078;BME280;26823;42.662;23.352;2023-09-30T11:19:19;95200.75;;;24.13;27.92
41078;BME280;26823;42.662;23.352;2023-09-30T11:21:48;95197.47;;;24.23;28.68
41078;BME280;26823;42.662;23.352;2023-09-30T11:24:14;95193.13;;;24.42;28.54
41078;BME280;26823;42.662;23.352;2023-09-30T11:26:39;95201.06;;;24.59;27.92
41078;BME280;26823;42.662;23.352;2023-09-30T11:29:13;95198.66;;;24.58;27.51
41078;BME280;26823;42.662;23.352;2023-09-30T11:31:41;95179.50;;;24.33;27.50
41078;BME280;26823;42.662;23.352;2023-09-30T11:34:08;95197.59;;;24.31;28.45
41078;BME280;26823;42.662;23.352;2023-09-30T11:36:36;95189.69;;;24.45;28.48
41078;BME280;26823;42.662;23.352;2023-09-30T11:39:02;95191.34;;;24.66;28.13
41078;BME280;26823;42.662;23.352;2023-09-30T11:41:39;95190.56;;;24.65;27.32
41078;BME280;26823;42.662;23.352;2023-09-30T11:44:10;95187.78;;;24.49;28.51
41078;BME280;26823;42.662;23.352;2023-09-30T11:47:02;95188.22;;;24.67;28.63
41078;BME280;26823;42.662;23.352;2023-09-30T11:49:38;95189.94;;;24.91;28.90
41078;BME280;26823;42.662;23.352;2023-09-30T11:52:06;95179.47;;;25.01;28.32
41078;BME280;26823;42.662;23.352;2023-09-30T11:54:34;95184.28;;;25.23;28.21
41078;BME280;26823;42.662;23.352;2023-09-30T11:57:03;95184.28;;;25.23;28.08
41078;BME280;26823;42.662;23.352;2023-09-30T11:59:29;95170.94;;;25.29;27.84
41078;BME280;26823;42.662;23.352;2023-09-30T12:01:56;95159.16;;;25.13;27.10
41078;BME280;26823;42.662;23.352;2023-09-30T12:04:22;95166.25;;;24.74;27.72
41078;BME280;26823;42.662;23.352;2023-09-30T12:06:47;95161.97;;;24.77;27.73
41078;BME280;26823;42.662;23.352;2023-09-30T12:09:14;95168.81;;;24.83;28.04
41078;BME280;26823;42.662;23.352;2023-09-30T12:11:41;95153.09;;;24.68;27.83
41078;BME280;26823;42.662;23.352;2023-09-30T12:14:10;95157.31;;;24.81;28.22
41078;BME280;26823;42.662;23.352;2023-09-30T12:16:35;95158.63;;;24.87;27.81
41078;BME280;26823;42.662;23.352;2023-09-30T12:19:01;95133.81;;;24.71;27.74
41078;BME280;26823;42.662;23.352;2023-09-30T12:21:26;95149.97;;;24.69;27.64
41078;BME280;26823;42.662;23.352;2023-09-30T12:23:51;95141.81;;;24.96;28.11
41078;BME280;26823;42.662;23.352;2023-09-30T12:26:17;95144.34;;;24.66;27.58
41078;BME280;26823;42.662;23.352;2023-09-30T12:28:45;95137.72;;;24.03;28.55
41078;BME280;26823;42.662;23.352;2023-09-30T12:31:10;95137.56;;;24.12;28.24
41078;BME280;26823;42.662;23.352;2023-09-30T12:33:36;95127.34;;;24.48;27.61
41078;BME280;26823;42.662;23.352;2023-09-30T12:36:02;95130.31;;;24.58;27.94
41078;BME280;26823;42.662;23.352;2023-09-30T12:38:27;95136.69;;;24.43;27.60
41078;BME280;26823;42.662;23.352;2023-09-30T12:40:54;95128.38;;;24.07;28.40
41078;BME280;26823;42.662;23.352;2023-09-30T12:43:20;95130.31;;;24.23;28.38
41078;BME280;26823;42.662;23.352;2023-09-30T12:45:46;95129.44;;;24.35;28.98
41078;BME280;26823;42.662;23.352;2023-09-30T12:48:12;95127.25;;;24.44;28.13
41078;BME280;26823;42.662;23.352;2023-09-30T12:50:38;95116.53;;;24.07;27.83
41078;BME280;26823;42.662;23.352;2023-09-30T12:53:03;95112.78;;;24.15;28.22
41078;BME280;26823;42.662;23.352;2023-09-30T12:55:28;95123.91;;;24.54;28.11
41078;BME280;26823;42.662;23.352;2023-09-30T12:57:54;95112.50;;;24.20;28.04
41078;BME280;26823;42.662;23.352;2023-09-30T13:00:19;95112.41;;;24.17;28.44
41078;BME280;26823;42.662;23.352;2023-09-30T13:02:47;95106.88;;;24.17;28.80
41078;BME280;26823;42.662;23.352;2023-09-30T13:05:13;95103.91;;;24.41;29.09
41078;BME280;26823;42.662;23.352;2023-09-30T13:07:39;95110.19;;;24.58;28.72
41078;BME280;26823;42.662;23.352;2023-09-30T13:10:05;95117.28;;;24.75;27.97
41078;BME280;26823;42.662;23.352;2023-09-30T13:12:30;95109.19;;;24.66;27.44